sensor_id;sensor_type;location;lat;lon;timestamp;P1;durP1;ratioP1;P2;durP2;ratioP2
10461;SDS011;5278;42.656;23.374;2023-03-04T00:02:25;16.63;;;12.13;;
10461;SDS011;5278;42.656;23.374;2023-03-04T00:04:52;15.73;;;12.13;;
10461;SDS011;5278;42.656;23.374;2023-03-04T00:07:21;17.40;;;12.60;;
10461;SDS011;5278;42.656;23.374;2023-03-04T00:09:48;15.53;;;12.37;;
10461;SDS011;5278;42.656;23.374;2023-03-04T00:12:15;15.93;;;11.43;;
10461;SDS011;5278;42.656;23.374;2023-03-04T00:14:42;15.03;;;11.50;;
10461;SDS011;5278;42.656;23.374;2023-03-04T00:17:09;16.70;;;11.43;;
10461;SDS011;5278;42.656;23.374;2023-03-04T00:19:36;15.83;;;11.70;;
10461;SDS011;5278;42.656;23.374;2023-03-04T00:22:03;14.03;;;10.60;;
10461;SDS011;5278;42.656;23.374;2023-03-04T00:24:32;15.23;;;11.40;;
10461;SDS011;5278;42.656;23.374;2023-03-04T00:27:00;14.30;;;10.53;;
10461;SDS011;5278;42.656;23.374;2023-03-04T00:29:27;18.43;;;11.87;;
10461;SDS011;5278;42.656;23.374;2023-03-04T00:31:54;17.20;;;12.40;;
10461;SDS011;5278;42.656;23.374;2023-03-04T00:34:22;13.77;;;10.67;;
10461;SDS011;5278;42.656;23.374;2023-03-04T00:36:48;14.57;;;10.97;;
10461;SDS011;5278;42.656;23.374;2023-03-04T00:39:15;14.17;;;10.03;;
10461;SDS011;5278;42.656;23.374;2023-03-04T00:41:44;17.33;;;10.80;;
10461;SDS011;5278;42.656;23.374;2023-03-04T00:44:11;13.90;;;10.93;;
10461;SDS011;5278;42.656;23.374;2023-03-04T00:46:38;13.57;;;10.13;;
10461;SDS011;5278;42.656;23.374;2023-03-04T00:49:05;14.00;;;9.97;;
10461;SDS011;5278;42.656;23.374;2023-03-04T00:51:31;14.40;;;10.37;;
10461;SDS011;5278;42.656;23.374;2023-03-04T00:53:59;13.50;;;10.80;;
10461;SDS011;5278;42.656;23.374;2023-03-04T00:56:26;14.33;;;10.83;;
10461;SDS011;5278;42.656;23.374;2023-03-04T00:58:54;13.67;;;10.13;;
10461;SDS011;5278;42.656;23.374;2023-03-04T01:01:21;14.37;;;10.50;;
10461;SDS011;5278;42.656;23.374;2023-03-04T01:03:49;15.53;;;11.00;;
10461;SDS011;5278;42.656;23.374;2023-03-04T01:06:16;12.57;;;10.50;;
10461;SDS011;5278;42.656;23.374;2023-03-04T01:08:43;14.73;;;11.10;;
10461;SDS011;5278;42.656;23.374;2023-03-04T01:11:10;12.83;;;10.00;;
10461;SDS011;5278;42.656;23.374;2023-03-04T01:13:37;14.97;;;10.73;;
10461;SDS011;5278;42.656;23.374;2023-03-04T01:16:06;11.77;;;8.63;;
10461;SDS011;5278;42.656;23.374;2023-03-04T01:18:35;7.80;;;6.30;;
10461;SDS011;5278;42.656;23.374;2023-03-04T01:21:02;12.57;;;9.87;;
10461;SDS011;5278;42.656;23.374;2023-03-04T01:23:30;11.73;;;9.00;;
10461;SDS011;5278;42.656;23.374;2023-03-04T01:25:57;12.83;;;9.10;;
10461;SDS011;5278;42.656;23.374;2023-03-04T01:28:24;11.23;;;9.60;;
10461;SDS011;5278;42.656;23.374;2023-03-04T01:30:51;11.83;;;9.40;;
10461;SDS011;5278;42.656;23.374;2023-03-04T01:33:20;12.43;;;10.07;;
10461;SDS011;5278;42.656;23.374;2023-03-04T01:35:47;12.57;;;10.37;;
10461;SDS011;5278;42.656;23.374;2023-03-04T01:38:14;12.97;;;10.13;;
10461;SDS011;5278;42.656;23.374;2023-03-04T01:40:40;12.20;;;9.37;;
10461;SDS011;5278;42.656;23.374;2023-03-04T01:43:09;13.53;;;10.33;;
10461;SDS011;5278;42.656;23.374;2023-03-04T01:45:41;13.27;;;10.17;;
10461;SDS011;5278;42.656;23.374;2023-03-04T01:48:09;14.43;;;10.00;;
10461;SDS011;5278;42.656;23.374;2023-03-04T01:50:43;13.07;;;10.50;;
10461;SDS011;5278;42.656;23.374;2023-03-04T01:53:11;11.23;;;9.77;;
10461;SDS011;5278;42.656;23.374;2023-03-04T01:55:45;13.33;;;9.57;;
10461;SDS011;5278;42.656;23.374;2023-03-04T01:58:12;16.70;;;10.80;;
10461;SDS011;5278;42.656;23.374;2023-03-04T02:00:40;13.40;;;9.97;;
10461;SDS011;5278;42.656;23.374;2023-03-04T02:03:08;17.80;;;11.07;;
10461;SDS011;5278;42.656;23.374;2023-03-04T02:05:37;11.73;;;10.00;;
10461;SDS011;5278;42.656;23.374;2023-03-04T02:08:08;14.07;;;9.90;;
10461;SDS011;5278;42.656;23.374;2023-03-04T02:10:36;12.67;;;9.37;;
10461;SDS011;5278;42.656;23.374;2023-03-04T02:13:04;12.73;;;10.17;;
10461;SDS011;5278;42.656;23.374;2023-03-04T02:15:31;14.90;;;9.97;;
10461;SDS011;5278;42.656;23.374;2023-03-04T02:17:58;14.17;;;11.03;;
10461;SDS011;5278;42.656;23.374;2023-03-04T02:20:31;12.93;;;10.40;;
10461;SDS011;5278;42.656;23.374;2023-03-04T02:23:06;13.67;;;9.90;;
10461;SDS011;5278;42.656;23.374;2023-03-04T02:25:41;15.57;;;10.40;;
10461;SDS011;5278;42.656;23.374;2023-03-04T02:28:14;14.33;;;9.90;;
10461;SDS011;5278;42.656;23.374;2023-03-04T02:30:41;14.40;;;11.07;;
10461;SDS011;5278;42.656;23.374;2023-03-04T02:33:10;15.23;;;11.03;;
10461;SDS011;5278;42.656;23.374;2023-03-04T02:35:42;13.20;;;10.33;;
10461;SDS011;5278;42.656;23.374;2023-03-04T02:38:10;19.40;;;11.03;;
10461;SDS011;5278;42.656;23.374;2023-03-04T02:40:38;14.57;;;10.87;;
10461;SDS011;5278;42.656;23.374;2023-03-04T02:43:08;13.23;;;9.97;;
10461;SDS011;5278;42.656;23.374;2023-03-04T02:45:39;14.87;;;11.33;;
10461;SDS011;5278;42.656;23.374;2023-03-04T02:48:08;12.90;;;9.90;;
10461;SDS011;5278;42.656;23.374;2023-03-04T02:50:38;13.93;;;10.53;;
10461;SDS011;5278;42.656;23.374;2023-03-04T02:53:08;13.40;;;9.77;;
10461;SDS011;5278;42.656;23.374;2023-03-04T02:55:35;16.67;;;10.20;;
10461;SDS011;5278;42.656;23.374;2023-03-04T02:58:02;13.73;;;10.23;;
10461;SDS011;5278;42.656;23.374;2023-03-04T03:00:29;15.17;;;10.90;;
10461;SDS011;5278;42.656;23.374;2023-03-04T03:02:57;14.47;;;10.63;;
10461;SDS011;5278;42.656;23.374;2023-03-04T03:05:25;15.17;;;11.87;;
10461;SDS011;5278;42.656;23.374;2023-03-04T03:07:53;15.13;;;11.90;;
10461;SDS011;5278;42.656;23.374;2023-03-04T03:10:21;15.10;;;10.70;;
10461;SDS011;5278;42.656;23.374;2023-03-04T03:12:48;15.20;;;11.10;;
10461;SDS011;5278;42.656;23.374;2023-03-04T03:15:15;14.37;;;10.90;;
10461;SDS011;5278;42.656;23.374;2023-03-04T03:17:42;12.30;;;10.00;;
10461;SDS011;5278;42.656;23.374;2023-03-04T03:20:11;14.40;;;10.47;;
10461;SDS011;5278;42.656;23.374;2023-03-04T03:22:39;12.27;;;9.70;;
10461;SDS011;5278;42.656;23.374;2023-03-04T03:25:07;14.00;;;10.60;;
10461;SDS011;5278;42.656;23.374;2023-03-04T03:27:36;13.63;;;10.40;;
10461;SDS011;5278;42.656;23.374;2023-03-04T03:30:04;15.03;;;10.93;;
10461;SDS011;5278;42.656;23.374;2023-03-04T03:32:32;14.50;;;10.30;;
10461;SDS011;5278;42.656;23.374;2023-03-04T03:34:59;13.17;;;10.07;;
10461;SDS011;5278;42.656;23.374;2023-03-04T03:37:27;14.73;;;10.50;;
10461;SDS011;5278;42.656;23.374;2023-03-04T03:39:54;13.90;;;10.53;;
10461;SDS011;5278;42.656;23.374;2023-03-04T03:42:21;16.77;;;10.70;;
10461;SDS011;5278;42.656;23.374;2023-03-04T03:44:48;16.93;;;10.77;;
10461;SDS011;5278;42.656;23.374;2023-03-04T03:47:15;15.90;;;11.10;;
10461;SDS011;5278;42.656;23.374;2023-03-04T03:49:42;13.07;;;10.33;;
10461;SDS011;5278;42.656;23.374;2023-03-04T03:52:09;15.37;;;10.70;;
10461;SDS011;5278;42.656;23.374;2023-03-04T03:54:37;16.30;;;11.37;;
10461;SDS011;5278;42.656;23.374;2023-03-04T03:57:04;16.10;;;11.20;;
10461;SDS011;5278;42.656;23.374;2023-03-04T03:59:31;15.43;;;10.67;;
10461;SDS011;5278;42.656;23.374;2023-03-04T04:01:58;15.10;;;10.90;;
10461;SDS011;5278;42.656;23.374;2023-03-04T04:04:25;15.13;;;11.03;;
10461;SDS011;5278;42.656;23.374;2023-03-04T04:06:52;14.97;;;10.87;;
10461;SDS011;5278;42.656;23.374;2023-03-04T04:09:19;12.23;;;9.67;;
10461;SDS011;5278;42.656;23.374;2023-03-04T04:11:47;15.30;;;11.00;;
10461;SDS011;5278;42.656;23.374;2023-03-04T04:14:14;16.73;;;11.37;;
10461;SDS011;5278;42.656;23.374;2023-03-04T04:16:42;16.47;;;11.30;;
10461;SDS011;5278;42.656;23.374;2023-03-04T04:19:09;15.53;;;11.20;;
10461;SDS011;5278;42.656;23.374;2023-03-04T04:21:42;14.93;;;11.13;;
10461;SDS011;5278;42.656;23.374;2023-03-04T04:24:08;17.57;;;11.40;;
10461;SDS011;5278;42.656;23.374;2023-03-04T04:26:35;17.00;;;12.40;;
10461;SDS011;5278;42.656;23.374;2023-03-04T04:29:04;16.17;;;11.37;;
10461;SDS011;5278;42.656;23.374;2023-03-04T04:31:31;15.93;;;12.03;;
10461;SDS011;5278;42.656;23.374;2023-03-04T04:33:58;15.17;;;11.30;;
10461;SDS011;5278;42.656;23.374;2023-03-04T04:36:25;17.27;;;11.17;;
10461;SDS011;5278;42.656;23.374;2023-03-04T04:38:52;19.23;;;12.83;;
10461;SDS011;5278;42.656;23.374;2023-03-04T04:41:20;17.57;;;12.67;;
10461;SDS011;5278;42.656;23.374;2023-03-04T04:43:48;19.50;;;12.27;;
10461;SDS011;5278;42.656;23.374;2023-03-04T04:46:16;18.27;;;12.70;;
10461;SDS011;5278;42.656;23.374;2023-03-04T04:48:43;17.07;;;13.27;;
10461;SDS011;5278;42.656;23.374;2023-03-04T04:51:13;17.17;;;11.70;;
10461;SDS011;5278;42.656;23.374;2023-03-04T04:53:41;17.33;;;11.87;;
10461;SDS011;5278;42.656;23.374;2023-03-04T04:56:09;17.53;;;11.87;;
10461;SDS011;5278;42.656;23.374;2023-03-04T04:58:37;16.43;;;11.80;;
10461;SDS011;5278;42.656;23.374;2023-03-04T05:01:04;20.07;;;12.80;;
10461;SDS011;5278;42.656;23.374;2023-03-04T05:03:33;16.20;;;11.17;;
10461;SDS011;5278;42.656;23.374;2023-03-04T05:06:01;17.47;;;11.93;;
10461;SDS011;5278;42.656;23.374;2023-03-04T05:08:30;18.17;;;10.67;;
10461;SDS011;5278;42.656;23.374;2023-03-04T05:10:59;14.03;;;9.90;;
10461;SDS011;5278;42.656;23.374;2023-03-04T05:13:27;16.67;;;10.43;;
10461;SDS011;5278;42.656;23.374;2023-03-04T05:15:54;13.57;;;10.10;;
10461;SDS011;5278;42.656;23.374;2023-03-04T05:18:22;14.00;;;10.37;;
10461;SDS011;5278;42.656;23.374;2023-03-04T05:20:53;14.93;;;9.93;;
10461;SDS011;5278;42.656;23.374;2023-03-04T05:23:22;13.30;;;10.73;;
10461;SDS011;5278;42.656;23.374;2023-03-04T05:25:49;14.57;;;10.83;;
10461;SDS011;5278;42.656;23.374;2023-03-04T05:28:16;16.10;;;10.37;;
10461;SDS011;5278;42.656;23.374;2023-03-04T05:30:43;15.00;;;11.53;;
10461;SDS011;5278;42.656;23.374;2023-03-04T05:33:11;15.43;;;10.73;;
10461;SDS011;5278;42.656;23.374;2023-03-04T05:35:40;15.90;;;11.17;;
10461;SDS011;5278;42.656;23.374;2023-03-04T05:38:11;15.67;;;10.13;;
10461;SDS011;5278;42.656;23.374;2023-03-04T05:40:40;14.77;;;10.33;;
10461;SDS011;5278;42.656;23.374;2023-03-04T05:43:08;15.37;;;10.60;;
10461;SDS011;5278;42.656;23.374;2023-03-04T05:45:36;15.97;;;10.60;;
10461;SDS011;5278;42.656;23.374;2023-03-04T05:48:03;14.63;;;11.30;;
10461;SDS011;5278;42.656;23.374;2023-03-04T05:50:31;14.50;;;11.00;;
10461;SDS011;5278;42.656;23.374;2023-03-04T05:52:58;16.23;;;11.27;;
10461;SDS011;5278;42.656;23.374;2023-03-04T05:55:26;16.50;;;11.40;;
10461;SDS011;5278;42.656;23.374;2023-03-04T05:57:54;16.53;;;11.10;;
10461;SDS011;5278;42.656;23.374;2023-03-04T06:00:22;18.67;;;10.93;;
10461;SDS011;5278;42.656;23.374;2023-03-04T06:02:50;13.93;;;10.87;;
10461;SDS011;5278;42.656;23.374;2023-03-04T06:05:17;15.83;;;11.23;;
10461;SDS011;5278;42.656;23.374;2023-03-04T06:07:48;14.80;;;9.83;;
10461;SDS011;5278;42.656;23.374;2023-03-04T06:10:15;14.77;;;10.27;;
10461;SDS011;5278;42.656;23.374;2023-03-04T06:12:44;16.83;;;11.60;;
10461;SDS011;5278;42.656;23.374;2023-03-04T06:15:11;18.30;;;13.00;;
10461;SDS011;5278;42.656;23.374;2023-03-04T06:17:39;15.67;;;11.43;;
10461;SDS011;5278;42.656;23.374;2023-03-04T06:20:08;14.87;;;10.53;;
10461;SDS011;5278;42.656;23.374;2023-03-04T06:22:37;16.63;;;11.47;;
10461;SDS011;5278;42.656;23.374;2023-03-04T06:25:04;14.33;;;10.30;;
10461;SDS011;5278;42.656;23.374;2023-03-04T06:27:31;16.07;;;10.63;;
10461;SDS011;5278;42.656;23.374;2023-03-04T06:30:00;17.00;;;11.07;;
10461;SDS011;5278;42.656;23.374;2023-03-04T06:32:27;18.27;;;11.60;;
10461;SDS011;5278;42.656;23.374;2023-03-04T06:34:53;15.67;;;10.80;;
10461;SDS011;5278;42.656;23.374;2023-03-04T06:37:20;12.90;;;9.83;;
10461;SDS011;5278;42.656;23.374;2023-03-04T06:39:49;13.33;;;10.07;;
10461;SDS011;5278;42.656;23.374;2023-03-04T06:42:16;19.33;;;10.70;;
10461;SDS011;5278;42.656;23.374;2023-03-04T06:44:43;20.70;;;13.37;;
10461;SDS011;5278;42.656;23.374;2023-03-04T06:47:11;19.70;;;12.07;;
10461;SDS011;5278;42.656;23.374;2023-03-04T06:49:40;14.80;;;9.87;;
10461;SDS011;5278;42.656;23.374;2023-03-04T06:52:07;14.67;;;8.97;;
10461;SDS011;5278;42.656;23.374;2023-03-04T06:54:37;11.03;;;8.43;;
10461;SDS011;5278;42.656;23.374;2023-03-04T06:57:05;13.50;;;9.33;;
10461;SDS011;5278;42.656;23.374;2023-03-04T06:59:32;13.40;;;9.83;;
10461;SDS011;5278;42.656;23.374;2023-03-04T07:01:59;11.97;;;9.00;;
10461;SDS011;5278;42.656;23.374;2023-03-04T07:04:29;14.80;;;9.70;;
10461;SDS011;5278;42.656;23.374;2023-03-04T07:06:56;15.00;;;9.10;;
10461;SDS011;5278;42.656;23.374;2023-03-04T07:09:23;16.80;;;10.50;;
10461;SDS011;5278;42.656;23.374;2023-03-04T07:11:53;14.60;;;10.80;;
10461;SDS011;5278;42.656;23.374;2023-03-04T07:14:20;14.20;;;10.27;;
10461;SDS011;5278;42.656;23.374;2023-03-04T07:16:47;12.00;;;9.53;;
10461;SDS011;5278;42.656;23.374;2023-03-04T07:19:14;13.67;;;9.40;;
10461;SDS011;5278;42.656;23.374;2023-03-04T07:21:42;14.70;;;9.70;;
10461;SDS011;5278;42.656;23.374;2023-03-04T07:24:09;14.13;;;9.60;;
10461;SDS011;5278;42.656;23.374;2023-03-04T07:26:36;13.80;;;9.47;;
10461;SDS011;5278;42.656;23.374;2023-03-04T07:29:03;14.77;;;10.63;;
10461;SDS011;5278;42.656;23.374;2023-03-04T07:31:30;15.03;;;11.13;;
10461;SDS011;5278;42.656;23.374;2023-03-04T07:34:00;14.00;;;10.23;;
10461;SDS011;5278;42.656;23.374;2023-03-04T07:36:30;16.70;;;11.17;;
10461;SDS011;5278;42.656;23.374;2023-03-04T07:38:59;13.20;;;11.07;;
10461;SDS011;5278;42.656;23.374;2023-03-04T07:41:27;15.70;;;11.43;;
10461;SDS011;5278;42.656;23.374;2023-03-04T07:43:55;17.13;;;12.77;;
10461;SDS011;5278;42.656;23.374;2023-03-04T07:46:22;17.57;;;11.63;;
10461;SDS011;5278;42.656;23.374;2023-03-04T07:48:50;20.17;;;11.70;;
10461;SDS011;5278;42.656;23.374;2023-03-04T07:51:18;16.07;;;11.40;;
10461;SDS011;5278;42.656;23.374;2023-03-04T07:53:47;17.73;;;11.03;;
10461;SDS011;5278;42.656;23.374;2023-03-04T07:56:18;16.60;;;11.83;;
10461;SDS011;5278;42.656;23.374;2023-03-04T07:58:48;18.20;;;13.47;;
10461;SDS011;5278;42.656;23.374;2023-03-04T08:01:18;34.53;;;22.10;;
10461;SDS011;5278;42.656;23.374;2023-03-04T08:03:46;47.13;;;26.80;;
10461;SDS011;5278;42.656;23.374;2023-03-04T08:06:14;26.03;;;17.73;;
10461;SDS011;5278;42.656;23.374;2023-03-04T08:08:45;24.63;;;16.83;;
10461;SDS011;5278;42.656;23.374;2023-03-04T08:11:13;18.97;;;12.93;;
10461;SDS011;5278;42.656;23.374;2023-03-04T08:13:43;19.93;;;13.23;;
10461;SDS011;5278;42.656;23.374;2023-03-04T08:16:10;19.10;;;13.17;;
10461;SDS011;5278;42.656;23.374;2023-03-04T08:18:39;18.20;;;12.80;;
10461;SDS011;5278;42.656;23.374;2023-03-04T08:21:08;22.83;;;14.17;;
10461;SDS011;5278;42.656;23.374;2023-03-04T08:23:36;28.83;;;17.37;;
10461;SDS011;5278;42.656;23.374;2023-03-04T08:26:07;22.00;;;15.30;;
10461;SDS011;5278;42.656;23.374;2023-03-04T08:28:35;20.40;;;14.30;;
10461;SDS011;5278;42.656;23.374;2023-03-04T08:31:04;18.13;;;13.00;;
10461;SDS011;5278;42.656;23.374;2023-03-04T08:33:31;21.00;;;14.23;;
10461;SDS011;5278;42.656;23.374;2023-03-04T08:35:59;19.10;;;14.00;;
10461;SDS011;5278;42.656;23.374;2023-03-04T08:38:26;18.60;;;13.87;;
10461;SDS011;5278;42.656;23.374;2023-03-04T08:40:53;21.57;;;14.13;;
10461;SDS011;5278;42.656;23.374;2023-03-04T08:43:22;21.20;;;14.53;;
10461;SDS011;5278;42.656;23.374;2023-03-04T08:45:50;20.20;;;14.67;;
10461;SDS011;5278;42.656;23.374;2023-03-04T08:48:20;22.90;;;14.87;;
10461;SDS011;5278;42.656;23.374;2023-03-04T08:50:48;23.63;;;16.77;;
10461;SDS011;5278;42.656;23.374;2023-03-04T08:53:16;21.57;;;14.77;;
10461;SDS011;5278;42.656;23.374;2023-03-04T08:55:45;20.20;;;14.63;;
10461;SDS011;5278;42.656;23.374;2023-03-04T08:58:12;21.73;;;15.77;;
10461;SDS011;5278;42.656;23.374;2023-03-04T09:00:40;30.70;;;18.37;;
10461;SDS011;5278;42.656;23.374;2023-03-04T09:03:08;26.70;;;17.27;;
10461;SDS011;5278;42.656;23.374;2023-03-04T09:05:39;26.10;;;17.30;;
10461;SDS011;5278;42.656;23.374;2023-03-04T09:08:06;22.73;;;16.30;;
10461;SDS011;5278;42.656;23.374;2023-03-04T09:10:33;24.37;;;17.30;;
10461;SDS011;5278;42.656;23.374;2023-03-04T09:13:00;22.20;;;16.03;;
10461;SDS011;5278;42.656;23.374;2023-03-04T09:15:27;29.83;;;17.83;;
10461;SDS011;5278;42.656;23.374;2023-03-04T09:17:54;23.50;;;16.63;;
10461;SDS011;5278;42.656;23.374;2023-03-04T09:20:21;20.70;;;15.13;;
10461;SDS011;5278;42.656;23.374;2023-03-04T09:22:49;22.23;;;15.60;;
10461;SDS011;5278;42.656;23.374;2023-03-04T09:25:17;30.50;;;15.33;;
10461;SDS011;5278;42.656;23.374;2023-03-04T09:27:43;19.93;;;15.20;;
10461;SDS011;5278;42.656;23.374;2023-03-04T09:30:11;20.90;;;14.13;;
10461;SDS011;5278;42.656;23.374;2023-03-04T09:32:38;22.57;;;15.50;;
10461;SDS011;5278;42.656;23.374;2023-03-04T09:35:05;18.73;;;14.40;;
10461;SDS011;5278;42.656;23.374;2023-03-04T09:37:34;23.10;;;13.77;;
10461;SDS011;5278;42.656;23.374;2023-03-04T09:40:04;18.83;;;13.70;;
10461;SDS011;5278;42.656;23.374;2023-03-04T09:42:32;16.80;;;13.37;;
10461;SDS011;5278;42.656;23.374;2023-03-04T09:45:03;18.30;;;13.23;;
10461;SDS011;5278;42.656;23.374;2023-03-04T09:47:34;17.37;;;13.53;;
10461;SDS011;5278;42.656;23.374;2023-03-04T09:50:03;18.07;;;12.90;;
10461;SDS011;5278;42.656;23.374;2023-03-04T09:52:39;19.07;;;12.77;;
10461;SDS011;5278;42.656;23.374;2023-03-04T09:55:22;17.70;;;12.60;;
10461;SDS011;5278;42.656;23.374;2023-03-04T09:57:55;20.93;;;13.00;;
10461;SDS011;5278;42.656;23.374;2023-03-04T10:00:30;18.47;;;12.33;;
10461;SDS011;5278;42.656;23.374;2023-03-04T10:03:03;18.93;;;12.87;;
10461;SDS011;5278;42.656;23.374;2023-03-04T10:05:40;19.73;;;13.50;;
10461;SDS011;5278;42.656;23.374;2023-03-04T10:08:16;16.73;;;12.93;;
10461;SDS011;5278;42.656;23.374;2023-03-04T10:10:54;17.07;;;13.10;;
10461;SDS011;5278;42.656;23.374;2023-03-04T10:13:24;18.23;;;12.97;;
10461;SDS011;5278;42.656;23.374;2023-03-04T10:15:57;16.83;;;12.63;;
10461;SDS011;5278;42.656;23.374;2023-03-04T10:18:27;20.43;;;13.73;;
10461;SDS011;5278;42.656;23.374;2023-03-04T10:21:00;19.93;;;13.43;;
10461;SDS011;5278;42.656;23.374;2023-03-04T10:23:30;16.33;;;12.90;;
10461;SDS011;5278;42.656;23.374;2023-03-04T10:25:59;20.73;;;13.70;;
10461;SDS011;5278;42.656;23.374;2023-03-04T10:28:36;20.90;;;15.87;;
10461;SDS011;5278;42.656;23.374;2023-03-04T10:31:04;22.70;;;15.43;;
10461;SDS011;5278;42.656;23.374;2023-03-04T10:33:38;22.17;;;15.20;;
10461;SDS011;5278;42.656;23.374;2023-03-04T10:36:12;24.47;;;15.73;;
10461;SDS011;5278;42.656;23.374;2023-03-04T10:39:04;21.10;;;16.73;;
10461;SDS011;5278;42.656;23.374;2023-03-04T10:41:40;22.27;;;15.57;;
10461;SDS011;5278;42.656;23.374;2023-03-04T10:44:12;22.90;;;15.17;;
10461;SDS011;5278;42.656;23.374;2023-03-04T10:46:42;23.40;;;15.87;;
10461;SDS011;5278;42.656;23.374;2023-03-04T10:49:11;21.50;;;15.70;;
10461;SDS011;5278;42.656;23.374;2023-03-04T10:51:41;20.40;;;15.67;;
10461;SDS011;5278;42.656;23.374;2023-03-04T10:54:10;24.33;;;15.13;;
10461;SDS011;5278;42.656;23.374;2023-03-04T10:59:39;18.37;;;13.50;;
10461;SDS011;5278;42.656;23.374;2023-03-04T11:02:13;15.57;;;13.23;;
10461;SDS011;5278;42.656;23.374;2023-03-04T11:04:53;16.23;;;13.17;;
10461;SDS011;5278;42.656;23.374;2023-03-04T11:07:22;22.27;;;13.90;;
10461;SDS011;5278;42.656;23.374;2023-03-04T11:09:51;21.23;;;14.33;;
10461;SDS011;5278;42.656;23.374;2023-03-04T11:12:21;20.47;;;13.40;;
10461;SDS011;5278;42.656;23.374;2023-03-04T11:14:58;18.30;;;14.37;;
10461;SDS011;5278;42.656;23.374;2023-03-04T11:17:28;17.80;;;13.57;;
10461;SDS011;5278;42.656;23.374;2023-03-04T11:20:08;18.70;;;13.23;;
10461;SDS011;5278;42.656;23.374;2023-03-04T11:22:42;16.73;;;13.20;;
10461;SDS011;5278;42.656;23.374;2023-03-04T11:25:16;21.40;;;15.40;;
10461;SDS011;5278;42.656;23.374;2023-03-04T11:27:52;16.20;;;12.73;;
10461;SDS011;5278;42.656;23.374;2023-03-04T11:30:35;21.63;;;14.97;;
10461;SDS011;5278;42.656;23.374;2023-03-04T11:33:21;20.43;;;14.20;;
10461;SDS011;5278;42.656;23.374;2023-03-04T11:35:56;20.23;;;13.53;;
10461;SDS011;5278;42.656;23.374;2023-03-04T11:38:35;25.00;;;15.67;;
10461;SDS011;5278;42.656;23.374;2023-03-04T11:41:07;22.00;;;15.07;;
10461;SDS011;5278;42.656;23.374;2023-03-04T11:43:42;19.53;;;13.43;;
10461;SDS011;5278;42.656;23.374;2023-03-04T11:46:28;19.47;;;13.13;;
10461;SDS011;5278;42.656;23.374;2023-03-04T11:49:27;18.33;;;13.77;;
10461;SDS011;5278;42.656;23.374;2023-03-04T11:52:05;18.20;;;13.10;;
10461;SDS011;5278;42.656;23.374;2023-03-04T11:54:42;20.37;;;14.57;;
10461;SDS011;5278;42.656;23.374;2023-03-04T11:57:20;17.67;;;13.03;;
10461;SDS011;5278;42.656;23.374;2023-03-04T11:59:59;16.13;;;13.13;;
10461;SDS011;5278;42.656;23.374;2023-03-04T12:02:36;16.40;;;12.67;;
10461;SDS011;5278;42.656;23.374;2023-03-04T12:05:30;20.70;;;13.80;;
10461;SDS011;5278;42.656;23.374;2023-03-04T12:08:20;18.47;;;12.50;;
10461;SDS011;5278;42.656;23.374;2023-03-04T12:11:05;17.93;;;12.93;;
10461;SDS011;5278;42.656;23.374;2023-03-04T12:13:38;19.17;;;12.93;;
10461;SDS011;5278;42.656;23.374;2023-03-04T12:16:20;18.93;;;13.10;;
10461;SDS011;5278;42.656;23.374;2023-03-04T12:19:05;21.40;;;13.53;;
10461;SDS011;5278;42.656;23.374;2023-03-04T12:21:50;20.30;;;14.50;;
10461;SDS011;5278;42.656;23.374;2023-03-04T12:24:36;19.50;;;13.13;;
10461;SDS011;5278;42.656;23.374;2023-03-04T12:27:16;18.67;;;13.67;;
10461;SDS011;5278;42.656;23.374;2023-03-04T12:29:52;17.53;;;11.83;;
10461;SDS011;5278;42.656;23.374;2023-03-04T12:32:29;16.73;;;12.63;;
10461;SDS011;5278;42.656;23.374;2023-03-04T12:35:16;17.27;;;12.17;;
10461;SDS011;5278;42.656;23.374;2023-03-04T12:41:20;17.17;;;12.03;;
10461;SDS011;5278;42.656;23.374;2023-03-04T12:43:58;20.63;;;14.00;;
10461;SDS011;5278;42.656;23.374;2023-03-04T12:46:38;15.63;;;13.57;;
10461;SDS011;5278;42.656;23.374;2023-03-04T12:49:20;16.67;;;13.53;;
10461;SDS011;5278;42.656;23.374;2023-03-04T12:52:14;20.33;;;14.23;;
10461;SDS011;5278;42.656;23.374;2023-03-04T12:55:02;18.43;;;13.87;;
10461;SDS011;5278;42.656;23.374;2023-03-04T12:57:34;18.07;;;12.27;;
10461;SDS011;5278;42.656;23.374;2023-03-04T13:00:15;18.90;;;11.97;;
10461;SDS011;5278;42.656;23.374;2023-03-04T13:02:55;20.47;;;11.47;;
10461;SDS011;5278;42.656;23.374;2023-03-04T13:05:40;14.93;;;12.17;;
10461;SDS011;5278;42.656;23.374;2023-03-04T13:08:23;14.63;;;11.73;;
10461;SDS011;5278;42.656;23.374;2023-03-04T13:10:59;17.13;;;12.03;;
10461;SDS011;5278;42.656;23.374;2023-03-04T13:13:33;16.97;;;12.73;;
10461;SDS011;5278;42.656;23.374;2023-03-04T13:16:26;20.27;;;13.27;;
10461;SDS011;5278;42.656;23.374;2023-03-04T13:25:02;19.07;;;12.63;;
10461;SDS011;5278;42.656;23.374;2023-03-04T13:33:56;17.00;;;12.13;;
10461;SDS011;5278;42.656;23.374;2023-03-04T13:36:33;16.33;;;11.67;;
10461;SDS011;5278;42.656;23.374;2023-03-04T13:39:34;16.43;;;13.33;;
10461;SDS011;5278;42.656;23.374;2023-03-04T13:42:39;19.67;;;13.90;;
10461;SDS011;5278;42.656;23.374;2023-03-04T13:48:20;17.47;;;13.23;;
10461;SDS011;5278;42.656;23.374;2023-03-04T13:50:50;18.77;;;13.37;;
10461;SDS011;5278;42.656;23.374;2023-03-04T13:59:21;16.67;;;12.60;;
10461;SDS011;5278;42.656;23.374;2023-03-04T14:02:00;17.47;;;12.60;;
10461;SDS011;5278;42.656;23.374;2023-03-04T14:04:41;16.60;;;12.90;;
10461;SDS011;5278;42.656;23.374;2023-03-04T14:07:18;16.40;;;12.27;;
10461;SDS011;5278;42.656;23.374;2023-03-04T14:09:54;18.00;;;12.67;;
10461;SDS011;5278;42.656;23.374;2023-03-04T14:12:42;16.63;;;12.43;;
10461;SDS011;5278;42.656;23.374;2023-03-04T14:15:21;19.23;;;13.93;;
10461;SDS011;5278;42.656;23.374;2023-03-04T14:17:56;18.07;;;13.37;;
10461;SDS011;5278;42.656;23.374;2023-03-04T14:20:28;16.83;;;12.57;;
10461;SDS011;5278;42.656;23.374;2023-03-04T14:23:21;25.30;;;16.03;;
10461;SDS011;5278;42.656;23.374;2023-03-04T14:26:01;16.80;;;13.10;;
10461;SDS011;5278;42.656;23.374;2023-03-04T14:28:36;15.70;;;12.93;;
10461;SDS011;5278;42.656;23.374;2023-03-04T14:31:14;17.30;;;13.53;;
10461;SDS011;5278;42.656;23.374;2023-03-04T14:33:43;14.37;;;12.37;;
10461;SDS011;5278;42.656;23.374;2023-03-04T14:36:16;19.07;;;12.87;;
10461;SDS011;5278;42.656;23.374;2023-03-04T14:38:56;15.93;;;12.43;;
10461;SDS011;5278;42.656;23.374;2023-03-04T14:41:29;16.53;;;13.23;;
10461;SDS011;5278;42.656;23.374;2023-03-04T14:44:06;17.07;;;12.80;;
10461;SDS011;5278;42.656;23.374;2023-03-04T14:46:41;17.57;;;13.83;;
10461;SDS011;5278;42.656;23.374;2023-03-04T14:49:15;17.47;;;14.03;;
10461;SDS011;5278;42.656;23.374;2023-03-04T14:51:44;18.40;;;13.67;;
10461;SDS011;5278;42.656;23.374;2023-03-04T14:54:27;18.80;;;13.80;;
10461;SDS011;5278;42.656;23.374;2023-03-04T14:56:57;23.33;;;15.47;;
10461;SDS011;5278;42.656;23.374;2023-03-04T14:59:31;19.47;;;14.60;;
10461;SDS011;5278;42.656;23.374;2023-03-04T15:04:58;18.70;;;13.50;;
10461;SDS011;5278;42.656;23.374;2023-03-04T15:07:30;18.73;;;14.13;;
10461;SDS011;5278;42.656;23.374;2023-03-04T15:10:00;17.13;;;12.60;;
10461;SDS011;5278;42.656;23.374;2023-03-04T15:12:31;20.77;;;16.30;;
10461;SDS011;5278;42.656;23.374;2023-03-04T15:15:01;28.63;;;22.37;;
10461;SDS011;5278;42.656;23.374;2023-03-04T15:17:31;27.43;;;16.83;;